To NAV CANADA Home Page Login to a new session Search on AWWS site Feedback and Comments Disclaimer Vers la page française équivalente Tips FAQ What's new on the site To the Forecasts and Observations / NOTAM section To "File a Flight Plan" website Publications and other links Update of the User's profile FIC Telephone Numbers My Weather Data Folder Route Weather Data Regional Weather Data Local Weather Data To the Forecasts and Observations / NOTAM section
Request Generated 08/26/2016 at 01:23:21 UTC . Weather information available at that time is displayed.

METAR/TAF

FARO/YT    

METAR CZFA 260100Z 00000KT 15SM -RA FEW018 SCT025 OVC050 14/13 A3009
RMK SC2SC1SC5 CLIMAT 17.3/8.9/1.4MM LAST STFD OBS/NXT 261300Z
SLP209 DENSITY ALT 2600FT=
METAR CZFA 260000Z VRB02KT 20SM -RA FEW025 BKN055 OVC075 15/13 A3012
RMK SC2SC4AC2 SLP219 DENSITY ALT 2600FT=
SPECI CZFA 252323Z 33003KT 270V010 20SM -RA FEW060 SCT070 OVC090
15/12 A3014 RMK SC1AC2AS5 SLP225 DENSITY ALT 2600FT=
METAR CZFA 252300Z 30004KT 30SM VCSH FEW028 FEW060 SCT075 OVC100
16/12 A3015 RMK SC1SC1AC2AS4 VIS S 10 SLP228 DENSITY ALT 2700FT=

*** REMARK        : Forecast period has ended; this was the last TAF issued
*** REMARQUE : La période de prévision est échue; ceci était le dernier TAF qui a été émis
TAF CZFA 251739Z 2518/2601 VRB03KT P6SM SCT090 BKN120
BECMG 2519/2521 27006KT
FM252100 27006KT P6SM SCT020 BKN050 TEMPO 2521/2601 P6SM -RA
FEW010 BKN025
RMK NXT FCST WILL BE ISSUED AT 261445Z=
Your time UTC time
Weather data provided by Environment Canada and NAV CANADA